createdAt,value
2018-12-16T00:00:49.951Z,979.10
2018-12-16T00:01:49.841Z,979.09
2018-12-16T00:02:49.794Z,979.10
2018-12-16T00:03:49.753Z,979.07
2018-12-16T00:04:49.994Z,979.04
2018-12-16T00:05:49.665Z,979.04
2018-12-16T00:06:49.614Z,979.03
2018-12-16T00:07:49.571Z,979.06
2018-12-16T00:08:49.530Z,979.03
2018-12-16T00:09:49.486Z,979.08
2018-12-16T00:10:49.444Z,979.08
2018-12-16T00:11:49.393Z,979.13
2018-12-16T00:12:49.354Z,979.11
2018-12-16T00:13:49.300Z,979.12
2018-12-16T00:14:49.254Z,979.11
2018-12-16T00:15:49.212Z,979.18
2018-12-16T00:16:49.171Z,979.10
2018-12-16T00:17:49.126Z,979.09
2018-12-16T00:18:49.080Z,979.10
2018-12-16T00:19:49.034Z,979.05
2018-12-16T00:20:48.988Z,979.06
2018-12-16T00:21:48.940Z,979.05
2018-12-16T00:22:48.901Z,979.03
2018-12-16T00:23:48.854Z,979.03
2018-12-16T00:24:48.807Z,979.00
2018-12-16T00:25:48.764Z,978.95
2018-12-16T00:26:48.716Z,978.91
2018-12-16T00:27:48.673Z,978.88
2018-12-16T00:28:48.630Z,978.84
2018-12-16T00:29:48.587Z,978.76
2018-12-16T00:30:48.541Z,978.75
2018-12-16T00:31:48.494Z,978.73
2018-12-16T00:32:48.450Z,978.72
2018-12-16T00:33:48.400Z,978.72
2018-12-16T00:34:48.356Z,978.73
2018-12-16T00:35:48.315Z,978.72
2018-12-16T00:36:48.272Z,978.75
2018-12-16T00:37:48.229Z,978.71
2018-12-16T00:38:48.174Z,978.69
2018-12-16T00:39:48.135Z,978.65
2018-12-16T00:40:48.088Z,978.65
2018-12-16T00:41:48.048Z,978.64
2018-12-16T00:42:48.000Z,978.59
2018-12-16T00:43:47.955Z,978.56
2018-12-16T00:44:47.905Z,978.57
2018-12-16T00:45:47.860Z,978.56
2018-12-16T00:46:47.813Z,978.58
2018-12-16T00:47:47.774Z,978.54
2018-12-16T00:48:47.727Z,978.54
2018-12-16T00:49:47.684Z,978.55
2018-12-16T00:50:47.638Z,978.49
2018-12-16T00:51:47.592Z,978.50
2018-12-16T00:52:47.544Z,978.45
2018-12-16T00:53:47.501Z,978.44
2018-12-16T00:54:47.457Z,978.42
2018-12-16T00:55:47.417Z,978.45
2018-12-16T00:56:47.364Z,978.41
2018-12-16T00:57:47.318Z,978.41
2018-12-16T00:58:47.273Z,978.43
2018-12-16T00:59:47.227Z,978.42
2018-12-16T01:00:47.187Z,978.40
2018-12-16T01:01:47.141Z,978.37
2018-12-16T01:02:47.098Z,978.28
2018-12-16T01:03:47.049Z,978.31
2018-12-16T01:04:47.002Z,978.28
2018-12-16T01:05:46.955Z,978.30
2018-12-16T01:06:46.909Z,978.27
2018-12-16T01:07:46.866Z,978.29
2018-12-16T01:08:46.828Z,978.30
2018-12-16T01:09:46.780Z,978.27
2018-12-16T01:10:46.729Z,978.29
2018-12-16T01:11:46.687Z,978.31
2018-12-16T01:12:46.641Z,978.30
2018-12-16T01:13:46.599Z,978.28
2018-12-16T01:14:46.553Z,978.24
2018-12-16T01:15:46.505Z,978.25
2018-12-16T01:16:46.458Z,978.17
2018-12-16T01:17:46.415Z,978.19
2018-12-16T01:18:46.365Z,978.18
2018-12-16T01:19:46.322Z,978.16
2018-12-16T01:20:46.282Z,978.15
2018-12-16T01:21:46.238Z,978.14
2018-12-16T01:22:46.193Z,978.10
2018-12-16T01:23:46.146Z,978.13
2018-12-16T01:24:46.099Z,978.12
2018-12-16T01:25:46.059Z,978.08
2018-12-16T01:26:46.014Z,978.06
2018-12-16T01:27:45.963Z,978.06
2018-12-16T01:28:45.917Z,978.05
2018-12-16T01:29:45.869Z,978.04
2018-12-16T01:30:45.828Z,978.04
2018-12-16T01:31:45.782Z,978.08
2018-12-16T01:32:45.740Z,978.04
2018-12-16T01:33:45.694Z,978.02
2018-12-16T01:34:45.653Z,978.02
2018-12-16T01:35:45.602Z,978.02
2018-12-16T01:36:45.556Z,978.00
2018-12-16T01:37:45.512Z,978.02
2018-12-16T01:38:45.466Z,978.02
2018-12-16T01:39:45.422Z,977.98
2018-12-16T01:40:45.376Z,977.92
2018-12-16T01:41:45.333Z,977.88
2018-12-16T01:42:45.285Z,977.86
2018-12-16T01:43:45.238Z,977.84
2018-12-16T01:44:45.199Z,977.82
2018-12-16T01:45:45.152Z,977.80
2018-12-16T01:46:45.107Z,977.75
2018-12-16T01:47:45.061Z,977.74
2018-12-16T01:48:45.013Z,977.68
2018-12-16T01:49:44.966Z,977.64
2018-12-16T01:50:44.921Z,977.64
2018-12-16T01:51:44.878Z,977.59
2018-12-16T01:52:50.194Z,977.58
2018-12-16T01:53:44.799Z,977.48
2018-12-16T01:54:44.746Z,977.46
2018-12-16T01:55:44.699Z,977.42
2018-12-16T01:56:44.653Z,977.39
2018-12-16T01:57:44.605Z,977.39
2018-12-16T01:58:44.567Z,977.29
2018-12-16T01:59:44.521Z,977.29
2018-12-16T02:00:44.472Z,977.28
2018-12-16T02:01:44.426Z,977.25
2018-12-16T02:02:44.379Z,977.28
2018-12-16T02:03:44.340Z,977.26
2018-12-16T02:04:44.295Z,977.34
2018-12-16T02:05:44.251Z,977.29
2018-12-16T02:06:44.204Z,977.25
2018-12-16T02:07:44.158Z,977.23
2018-12-16T02:08:44.112Z,977.19
2018-12-16T02:09:44.064Z,977.21
2018-12-16T02:10:44.018Z,977.18
2018-12-16T02:11:43.976Z,977.16
2018-12-16T02:12:43.932Z,977.23
2018-12-16T02:13:43.890Z,977.26
2018-12-16T02:14:43.839Z,977.20
2018-12-16T02:15:43.800Z,977.25
2018-12-16T02:16:43.754Z,977.24
2018-12-16T02:17:43.710Z,977.25
2018-12-16T02:18:43.664Z,977.17
2018-12-16T02:19:43.617Z,977.20
2018-12-16T02:20:43.570Z,977.25
2018-12-16T02:21:43.524Z,977.25
2018-12-16T02:22:43.478Z,977.29
2018-12-16T02:23:43.435Z,977.19
2018-12-16T02:24:43.392Z,977.15
2018-12-16T02:25:43.350Z,977.12
2018-12-16T02:26:43.304Z,977.08
2018-12-16T02:27:43.257Z,977.09
2018-12-16T02:28:43.210Z,977.03
2018-12-16T02:29:43.168Z,977.05
2018-12-16T02:30:43.122Z,976.99
2018-12-16T02:31:43.079Z,976.95
2018-12-16T02:32:43.029Z,976.94
2018-12-16T02:33:42.982Z,976.90
2018-12-16T02:34:42.937Z,976.87
2018-12-16T02:35:42.896Z,976.86
2018-12-16T02:36:42.855Z,976.85
2018-12-16T02:37:42.809Z,976.81
2018-12-16T02:38:42.765Z,976.79
2018-12-16T02:39:42.716Z,976.76
2018-12-16T02:40:42.668Z,976.74
2018-12-16T02:41:42.629Z,976.70
2018-12-16T02:42:42.580Z,976.74
2018-12-16T02:43:42.533Z,976.71
2018-12-16T02:44:42.494Z,976.70
2018-12-16T02:45:42.450Z,976.67
2018-12-16T02:46:42.401Z,976.65
2018-12-16T02:47:42.356Z,976.58
2018-12-16T02:48:42.313Z,976.61
2018-12-16T02:49:42.269Z,976.60
2018-12-16T02:50:42.225Z,976.58
2018-12-16T02:51:42.177Z,976.53
2018-12-16T02:52:42.128Z,976.52
2018-12-16T02:53:42.083Z,976.55
2018-12-16T02:54:42.036Z,976.51
2018-12-16T02:55:41.995Z,976.45
2018-12-16T02:56:41.953Z,976.49
2018-12-16T02:57:41.909Z,976.48
2018-12-16T02:58:41.867Z,976.45
2018-12-16T02:59:41.891Z,976.38
2018-12-16T03:00:41.768Z,976.44
2018-12-16T03:01:41.731Z,976.40
2018-12-16T03:02:41.685Z,976.45
2018-12-16T03:03:41.643Z,976.41
2018-12-16T03:04:41.589Z,976.44
2018-12-16T03:05:41.543Z,976.45
2018-12-16T03:06:41.498Z,976.44
2018-12-16T03:07:41.453Z,976.45
2018-12-16T03:08:41.411Z,976.48
2018-12-16T03:09:41.370Z,976.48
2018-12-16T03:10:41.322Z,976.48
2018-12-16T03:11:41.276Z,976.47
2018-12-16T03:12:41.230Z,976.44
2018-12-16T03:13:41.184Z,976.38
2018-12-16T03:14:41.135Z,976.38
2018-12-16T03:15:41.097Z,976.35
2018-12-16T03:16:41.072Z,976.35
2018-12-16T03:17:41.008Z,976.32
2018-12-16T03:18:40.955Z,976.33
2018-12-16T03:19:40.913Z,976.30
2018-12-16T03:20:40.889Z,976.30
2018-12-16T03:21:40.827Z,976.31
2018-12-16T03:22:40.786Z,976.36
2018-12-16T03:23:40.736Z,976.40
2018-12-16T03:24:40.688Z,976.38
2018-12-16T03:25:40.640Z,976.40
2018-12-16T03:26:40.598Z,976.40
2018-12-16T03:27:40.552Z,976.46
2018-12-16T03:28:40.513Z,976.49
2018-12-16T03:29:40.465Z,976.42
2018-12-16T03:30:40.427Z,976.44
2018-12-16T03:31:40.383Z,976.36
2018-12-16T03:32:40.327Z,976.34
2018-12-16T03:33:40.282Z,976.27
2018-12-16T03:34:40.240Z,976.21
2018-12-16T03:35:40.198Z,976.27
2018-12-16T03:36:40.148Z,976.23
2018-12-16T03:37:40.102Z,976.26
2018-12-16T03:38:40.057Z,976.27
2018-12-16T03:39:40.012Z,976.29
2018-12-16T03:40:39.973Z,976.39
2018-12-16T03:41:39.926Z,976.43
2018-12-16T03:42:39.880Z,976.45
2018-12-16T03:43:39.837Z,976.46
2018-12-16T03:44:39.799Z,976.44
2018-12-16T03:45:39.743Z,976.40
2018-12-16T03:46:39.698Z,976.33
2018-12-16T03:47:39.649Z,976.32
2018-12-16T03:48:39.617Z,976.29
2018-12-16T03:49:39.567Z,976.30
2018-12-16T03:50:39.516Z,976.27
2018-12-16T03:51:39.471Z,976.26
2018-12-16T04:06:45.103Z,975.90
2018-12-16T04:07:45.019Z,975.90
2018-12-16T04:08:44.975Z,975.99
2018-12-16T04:09:44.925Z,975.96
2018-12-16T04:10:44.876Z,976.00
2018-12-16T04:11:44.826Z,975.93
2018-12-16T04:12:44.781Z,975.96
2018-12-16T04:13:44.731Z,975.99
2018-12-16T04:14:44.687Z,976.02
2018-12-16T04:15:44.644Z,976.07
2018-12-16T04:16:44.599Z,976.11
2018-12-16T04:17:44.550Z,976.07
2018-12-16T04:18:44.505Z,976.05
2018-12-16T04:19:44.454Z,976.06
2018-12-16T04:20:44.414Z,976.03
2018-12-16T04:21:44.364Z,976.06
2018-12-16T04:22:44.316Z,976.02
2018-12-16T04:23:44.285Z,976.02
2018-12-16T04:24:44.234Z,976.02
2018-12-16T04:25:44.183Z,976.05
2018-12-16T04:26:44.134Z,976.03
2018-12-16T04:27:44.099Z,976.02
2018-12-16T04:28:44.050Z,976.01
2018-12-16T04:29:44.004Z,976.02
2018-12-16T04:30:43.960Z,976.04
2018-12-16T04:31:43.908Z,976.06
2018-12-16T04:32:43.865Z,976.06
2018-12-16T04:33:43.820Z,976.06
2018-12-16T04:34:43.776Z,976.05
2018-12-16T04:35:43.733Z,976.06
2018-12-16T04:36:43.688Z,976.07
2018-12-16T04:37:43.642Z,976.10
2018-12-16T04:38:43.598Z,976.05
2018-12-16T04:39:43.603Z,976.06
2018-12-16T04:40:43.504Z,976.02
2018-12-16T04:41:43.459Z,976.01
2018-12-16T04:42:43.418Z,976.07
2018-12-16T04:43:43.366Z,976.09
2018-12-16T04:44:43.324Z,976.06
2018-12-16T04:45:43.279Z,976.09
2018-12-16T04:46:43.231Z,976.09
2018-12-16T04:47:43.193Z,976.13
2018-12-16T04:48:43.147Z,976.10
2018-12-16T04:49:43.099Z,976.14
2018-12-16T04:50:43.058Z,976.12
2018-12-16T04:51:43.006Z,976.09
2018-12-16T04:52:42.964Z,976.05
2018-12-16T04:53:42.917Z,975.99
2018-12-16T04:54:42.873Z,975.99
2018-12-16T04:55:42.832Z,975.95
2018-12-16T04:56:42.787Z,975.96
2018-12-16T04:57:42.737Z,975.89
2018-12-16T04:58:42.691Z,975.84
2018-12-16T04:59:42.652Z,975.77
2018-12-16T05:00:42.605Z,975.75
2018-12-16T05:01:42.558Z,975.76
2018-12-16T05:02:42.516Z,975.81
2018-12-16T05:03:42.466Z,975.82
2018-12-16T05:04:42.423Z,975.81
2018-12-16T05:05:42.378Z,975.78
2018-12-16T05:06:42.335Z,975.73
2018-12-16T05:07:42.299Z,975.71
2018-12-16T05:08:42.246Z,975.76
2018-12-16T05:09:42.199Z,975.72
2018-12-16T05:10:42.157Z,975.75
2018-12-16T05:11:42.107Z,975.74
2018-12-16T05:12:42.063Z,975.71
2018-12-16T05:13:42.024Z,975.64
2018-12-16T05:14:41.982Z,975.61
2018-12-16T05:15:41.927Z,975.64
2018-12-16T05:16:41.883Z,975.65
2018-12-16T05:17:41.838Z,975.73
2018-12-16T05:18:41.791Z,975.82
2018-12-16T05:19:41.752Z,975.86
2018-12-16T05:20:41.706Z,975.87
2018-12-16T05:21:41.659Z,975.87
2018-12-16T05:22:41.617Z,975.83
2018-12-16T05:23:42.061Z,975.80
2018-12-16T05:24:41.526Z,975.80
2018-12-16T05:25:41.479Z,975.79
2018-12-16T05:26:41.432Z,975.79
2018-12-16T05:27:41.394Z,975.67
2018-12-16T05:28:41.346Z,975.65
2018-12-16T05:29:41.299Z,975.66
2018-12-16T05:30:41.252Z,975.71
2018-12-16T05:31:41.213Z,975.73
2018-12-16T05:32:41.168Z,975.65
2018-12-16T05:33:41.123Z,975.70
2018-12-16T05:34:41.081Z,975.73
2018-12-16T05:35:41.028Z,975.76
2018-12-16T05:36:40.987Z,975.77
2018-12-16T05:37:41.007Z,975.85
2018-12-16T05:38:40.893Z,975.90
2018-12-16T05:39:40.854Z,975.97
2018-12-16T05:40:40.808Z,975.95
2018-12-16T05:41:40.762Z,975.92
2018-12-16T05:42:40.721Z,975.91
2018-12-16T05:43:40.669Z,975.86
2018-12-16T05:44:40.627Z,975.84
2018-12-16T05:45:40.584Z,975.88
2018-12-16T05:46:40.540Z,975.81
2018-12-16T05:47:40.490Z,975.80
2018-12-16T05:48:40.447Z,975.73
2018-12-16T05:49:40.470Z,975.74
2018-12-16T05:50:40.353Z,975.71
2018-12-16T05:51:40.318Z,975.73
2018-12-16T05:52:40.271Z,975.74
2018-12-16T05:53:40.227Z,975.70
2018-12-16T05:54:40.181Z,975.73
2018-12-16T05:55:40.131Z,975.69
2018-12-16T05:56:40.088Z,975.62
2018-12-16T05:57:40.044Z,975.55
2018-12-16T05:58:39.997Z,975.56
2018-12-16T05:59:39.958Z,975.60
2018-12-16T06:00:39.911Z,975.58
2018-12-16T06:01:39.863Z,975.54
2018-12-16T06:02:39.818Z,975.55
2018-12-16T06:03:39.778Z,975.57
2018-12-16T06:04:39.733Z,975.59
2018-12-16T06:05:39.686Z,975.66
2018-12-16T06:06:39.645Z,975.61
2018-12-16T06:07:39.594Z,975.53
2018-12-16T06:08:39.551Z,975.57
2018-12-16T06:09:39.507Z,975.53
2018-12-16T06:10:39.459Z,975.55
2018-12-16T06:11:39.421Z,975.59
2018-12-16T06:12:39.374Z,975.57
2018-12-16T06:13:39.329Z,975.62
2018-12-16T06:14:39.286Z,975.59
2018-12-16T06:15:39.235Z,975.57
2018-12-16T06:16:39.193Z,975.60
2018-12-16T06:17:39.151Z,975.61
2018-12-16T06:18:39.107Z,975.66
2018-12-16T06:19:39.057Z,975.63
2018-12-16T06:20:39.015Z,975.58
2018-12-16T06:21:38.968Z,975.55
2018-12-16T06:22:38.923Z,975.58
2018-12-16T06:23:38.884Z,975.55
2018-12-16T06:24:38.837Z,975.60
2018-12-16T06:25:38.800Z,975.62
2018-12-16T06:26:38.750Z,975.59
2018-12-16T06:27:38.699Z,975.56
2018-12-16T06:28:38.657Z,975.46
2018-12-16T06:29:38.612Z,975.50
2018-12-16T06:30:38.566Z,975.57
2018-12-16T06:31:38.529Z,975.58
2018-12-16T06:32:38.480Z,975.51
2018-12-16T06:33:38.432Z,975.50
2018-12-16T06:34:38.387Z,975.53
2018-12-16T06:35:38.349Z,975.48
2018-12-16T06:36:38.303Z,975.52
2018-12-16T06:37:38.255Z,975.50
2018-12-16T06:38:38.219Z,975.46
2018-12-16T06:39:38.164Z,975.44
2018-12-16T06:40:38.121Z,975.45
2018-12-16T06:41:38.074Z,975.40
2018-12-16T06:42:38.029Z,975.43
2018-12-16T06:43:37.991Z,975.36
2018-12-16T06:44:37.944Z,975.39
2018-12-16T06:45:37.899Z,975.44
2018-12-16T06:46:37.856Z,975.39
2018-12-16T06:47:37.807Z,975.48
2018-12-16T06:48:37.766Z,975.47
2018-12-16T06:49:37.722Z,975.54
2018-12-16T06:50:37.678Z,975.53
2018-12-16T06:51:37.627Z,975.51
2018-12-16T06:52:37.584Z,975.47
2018-12-16T06:53:37.540Z,975.48
2018-12-16T06:54:37.493Z,975.49
2018-12-16T06:55:43.069Z,975.47
2018-12-16T06:56:37.409Z,975.54
2018-12-16T06:57:37.363Z,975.52
2018-12-16T06:58:37.321Z,975.48
2018-12-16T06:59:37.274Z,975.55
2018-12-16T07:00:37.341Z,975.59
2018-12-16T07:01:37.183Z,975.57
2018-12-16T07:02:37.138Z,975.56
2018-12-16T07:03:37.097Z,975.54
2018-12-16T07:04:37.051Z,975.61
2018-12-16T07:05:37.004Z,975.55
2018-12-16T07:06:36.959Z,975.55
2018-12-16T07:07:36.919Z,975.49
2018-12-16T07:08:36.872Z,975.47
2018-12-16T07:09:36.830Z,975.56
2018-12-16T07:10:36.784Z,975.54
2018-12-16T07:11:36.734Z,975.56
2018-12-16T07:12:36.703Z,975.58
2018-12-16T07:13:36.665Z,975.58
2018-12-16T07:14:36.604Z,975.56
2018-12-16T07:15:36.563Z,975.59
2018-12-16T07:16:36.516Z,975.63
2018-12-16T07:17:36.471Z,975.62
2018-12-16T07:18:36.430Z,975.58
2018-12-16T07:19:36.395Z,975.65
2018-12-16T07:20:36.335Z,975.65
2018-12-16T07:21:36.294Z,975.64
2018-12-16T07:22:36.251Z,975.63
2018-12-16T07:23:36.198Z,975.64
2018-12-16T07:24:36.187Z,975.60
2018-12-16T07:25:36.115Z,975.61
2018-12-16T07:26:36.078Z,975.63
2018-12-16T07:27:36.027Z,975.66
2018-12-16T07:28:35.981Z,975.65
2018-12-16T07:29:35.936Z,975.64
2018-12-16T07:30:35.904Z,975.71
2018-12-16T07:31:35.843Z,975.66
2018-12-16T07:32:35.801Z,975.68
2018-12-16T07:33:35.755Z,975.69
2018-12-16T07:34:35.710Z,975.64
2018-12-16T07:35:35.712Z,975.70
2018-12-16T07:36:35.657Z,975.71
2018-12-16T07:37:35.579Z,975.72
2018-12-16T07:38:35.531Z,975.69
2018-12-16T07:39:35.494Z,975.72
2018-12-16T07:40:35.471Z,975.75
2018-12-16T07:41:35.401Z,975.72
2018-12-16T07:42:35.394Z,975.73
2018-12-16T07:43:35.310Z,975.71
2018-12-16T07:44:35.268Z,975.76
2018-12-16T07:45:35.222Z,975.75
2018-12-16T07:46:35.185Z,975.75
2018-12-16T07:47:35.138Z,975.75
2018-12-16T07:48:35.113Z,975.78
2018-12-16T07:49:35.046Z,975.79
2018-12-16T07:50:35.005Z,975.72
2018-12-16T07:51:34.955Z,975.77
2018-12-16T07:52:34.925Z,975.74
2018-12-16T07:53:34.869Z,975.78
2018-12-16T07:54:34.849Z,975.77
2018-12-16T07:55:34.800Z,975.83
2018-12-16T07:56:34.733Z,975.87
2018-12-16T07:57:34.690Z,975.81
2018-12-16T07:58:34.644Z,975.87
2018-12-16T07:59:34.605Z,975.85
2018-12-16T08:00:34.575Z,975.91
2018-12-16T08:01:34.519Z,975.91
2018-12-16T08:02:34.472Z,975.87
2018-12-16T08:03:34.437Z,975.95
2018-12-16T08:04:34.424Z,975.94
2018-12-16T08:05:34.337Z,976.01
2018-12-16T08:06:34.287Z,975.97
2018-12-16T08:07:34.249Z,976.00
2018-12-16T08:08:34.204Z,976.00
2018-12-16T08:09:34.157Z,976.03
2018-12-16T08:10:34.111Z,976.06
2018-12-16T08:11:34.075Z,976.07
2018-12-16T08:12:34.031Z,976.08
2018-12-16T08:13:33.980Z,976.12
2018-12-16T08:14:33.939Z,976.12
2018-12-16T08:15:33.889Z,976.16
2018-12-16T08:16:33.853Z,976.07
2018-12-16T08:17:33.801Z,976.13
2018-12-16T08:18:33.757Z,976.11
2018-12-16T08:19:33.718Z,976.12
2018-12-16T08:20:33.673Z,976.14
2018-12-16T08:21:33.627Z,976.09
2018-12-16T08:22:33.585Z,976.16
2018-12-16T08:23:33.535Z,976.19
2018-12-16T08:24:33.494Z,976.18
2018-12-16T08:25:33.451Z,976.20
2018-12-16T08:26:33.409Z,976.17
2018-12-16T08:27:33.373Z,976.17
2018-12-16T08:28:33.317Z,976.20
2018-12-16T08:29:33.273Z,976.24
2018-12-16T08:30:33.225Z,976.23
2018-12-16T08:31:33.188Z,976.25
2018-12-16T08:32:33.142Z,976.23
2018-12-16T08:33:33.099Z,976.25
2018-12-16T08:34:33.053Z,976.26
2018-12-16T08:35:33.007Z,976.24
2018-12-16T08:36:33.004Z,976.23
2018-12-16T08:37:32.918Z,976.19
2018-12-16T08:38:32.875Z,976.21
2018-12-16T08:39:32.833Z,976.18
2018-12-16T08:40:32.792Z,976.19
2018-12-16T08:41:32.741Z,976.21
2018-12-16T08:42:32.699Z,976.20
2018-12-16T08:43:32.657Z,976.20
2018-12-16T08:44:32.616Z,976.23
2018-12-16T08:45:32.574Z,976.24
2018-12-16T08:46:32.526Z,976.21
2018-12-16T08:47:33.185Z,976.22
2018-12-16T08:48:32.434Z,976.22
2018-12-16T08:49:32.391Z,976.24
2018-12-16T08:50:32.346Z,976.24
2018-12-16T08:51:32.307Z,976.33
2018-12-16T08:52:32.264Z,976.27
2018-12-16T08:53:32.216Z,976.30
2018-12-16T08:54:32.173Z,976.32
2018-12-16T08:55:32.126Z,976.32
2018-12-16T08:56:32.082Z,976.31
2018-12-16T08:57:32.043Z,976.38
2018-12-16T08:58:31.999Z,976.39
2018-12-16T08:59:31.952Z,976.49
2018-12-16T09:00:31.906Z,976.49
2018-12-16T09:01:31.862Z,976.53
2018-12-16T09:02:31.821Z,976.56
2018-12-16T09:03:31.779Z,976.54
2018-12-16T09:04:31.737Z,976.53
2018-12-16T09:05:31.693Z,976.52
2018-12-16T09:06:31.648Z,976.52
2018-12-16T09:07:37.234Z,976.51
2018-12-16T09:08:31.557Z,976.55
2018-12-16T09:09:31.509Z,976.55
2018-12-16T09:10:34.207Z,976.56
2018-12-16T09:11:31.430Z,976.54
2018-12-16T09:12:31.387Z,976.53
2018-12-16T09:13:31.336Z,976.52
2018-12-16T09:14:31.295Z,976.52
2018-12-16T09:15:31.253Z,976.58
2018-12-16T09:16:31.212Z,976.55
2018-12-16T09:17:31.168Z,976.62
2018-12-16T09:18:31.122Z,976.59
2018-12-16T09:19:31.078Z,976.63
2018-12-16T09:20:31.034Z,976.59
2018-12-16T09:21:30.987Z,976.55
2018-12-16T09:22:32.222Z,976.55
2018-12-16T09:23:30.905Z,976.55
2018-12-16T09:24:37.054Z,976.53
2018-12-16T09:25:30.821Z,976.59
2018-12-16T09:26:30.793Z,976.67
2018-12-16T09:27:30.728Z,976.67
2018-12-16T09:28:30.683Z,976.63
2018-12-16T09:29:30.646Z,976.68
2018-12-16T09:30:30.599Z,976.67
2018-12-16T09:31:30.554Z,976.65
2018-12-16T09:32:30.511Z,976.63
2018-12-16T09:33:30.466Z,976.64
2018-12-16T09:34:30.424Z,976.65
2018-12-16T09:35:30.383Z,976.62
2018-12-16T09:36:30.342Z,976.61
2018-12-16T09:37:30.298Z,976.61
2018-12-16T09:38:30.325Z,976.66
2018-12-16T09:39:30.207Z,976.69
2018-12-16T09:40:30.230Z,976.70
2018-12-16T09:41:30.118Z,976.67
2018-12-16T09:42:30.077Z,976.72
2018-12-16T09:43:30.039Z,976.79
2018-12-16T09:44:29.995Z,976.77
2018-12-16T09:45:29.974Z,976.78
2018-12-16T09:46:30.096Z,976.88
2018-12-16T09:47:29.863Z,976.81
2018-12-16T09:48:29.821Z,976.84
2018-12-16T09:49:29.777Z,976.80
2018-12-16T09:50:29.736Z,976.76
2018-12-16T09:51:29.687Z,976.78
2018-12-16T09:52:29.718Z,976.80
2018-12-16T09:53:29.598Z,976.82
2018-12-16T09:54:29.557Z,976.79
2018-12-16T09:55:29.517Z,976.82
2018-12-16T09:56:29.473Z,976.75
2018-12-16T09:57:29.432Z,976.78
2018-12-16T09:58:29.387Z,976.74
2018-12-16T09:59:29.342Z,976.71
2018-12-16T10:00:29.296Z,976.75
2018-12-16T10:01:29.263Z,976.73
2018-12-16T10:02:29.212Z,976.75
2018-12-16T10:03:29.247Z,976.72
2018-12-16T10:04:29.197Z,976.74
2018-12-16T10:05:29.080Z,976.76
2018-12-16T10:20:18.110Z,976.54
2018-12-16T10:21:18.033Z,976.59
2018-12-16T10:22:22.141Z,976.60
2018-12-16T10:24:22.650Z,976.55
2018-12-16T10:26:17.802Z,976.62
2018-12-16T10:27:17.758Z,976.54
2018-12-16T10:28:17.707Z,976.60
2018-12-16T10:29:17.670Z,976.55
2018-12-16T10:30:17.626Z,976.54
2018-12-16T10:31:17.579Z,976.55
2018-12-16T10:32:17.751Z,976.55
2018-12-16T10:33:17.513Z,976.52
2018-12-16T10:34:17.601Z,976.52
2018-12-16T10:35:17.549Z,976.54
2018-12-16T10:36:17.358Z,976.43
2018-12-16T10:38:17.296Z,976.49
2018-12-16T10:39:17.232Z,976.43
2018-12-16T10:40:17.193Z,976.48
2018-12-16T10:41:17.146Z,976.43
2018-12-16T10:42:17.836Z,976.48
2018-12-16T10:44:17.025Z,976.52
2018-12-16T10:45:16.966Z,976.56
2018-12-16T10:46:16.919Z,976.51
2018-12-16T10:47:16.875Z,976.51
2018-12-16T10:48:16.832Z,976.55
2018-12-16T10:49:16.789Z,976.56
2018-12-16T10:50:16.749Z,976.56
2018-12-16T10:51:16.707Z,976.57
2018-12-16T10:54:16.580Z,976.56
2018-12-16T10:55:16.547Z,976.52
2018-12-16T10:56:16.500Z,976.51
2018-12-16T10:57:16.443Z,976.58
2018-12-16T10:58:16.402Z,976.50
2018-12-16T10:59:16.360Z,976.53
2018-12-16T11:00:16.314Z,976.54
2018-12-16T11:02:16.333Z,976.46
2018-12-16T11:03:16.199Z,976.47
2018-12-16T11:04:16.158Z,976.42
2018-12-16T11:05:16.102Z,976.46
2018-12-16T11:06:16.057Z,976.44
2018-12-16T11:07:16.019Z,976.47
2018-12-16T11:08:15.974Z,976.49
2018-12-16T11:09:15.934Z,976.50
2018-12-16T11:10:15.896Z,976.50
2018-12-16T11:11:15.850Z,976.43
2018-12-16T11:12:16.173Z,976.43
2018-12-16T11:13:15.759Z,976.44
2018-12-16T11:14:16.216Z,976.45
2018-12-16T11:18:15.703Z,976.43
2018-12-16T11:19:15.951Z,976.44
2018-12-16T11:22:15.524Z,976.42
2018-12-16T11:23:15.986Z,976.43
2018-12-16T11:25:15.254Z,976.42
2018-12-16T11:26:15.199Z,976.39
2018-12-16T11:27:15.157Z,976.39
2018-12-16T11:29:15.277Z,976.43
2018-12-16T11:31:15.333Z,976.46
2018-12-16T11:32:14.937Z,976.44
2018-12-16T11:33:14.897Z,976.44
2018-12-16T11:34:14.855Z,976.41
2018-12-16T11:35:14.896Z,976.41
2018-12-16T11:36:14.772Z,976.41
2018-12-16T11:37:14.779Z,976.44
2018-12-16T11:38:14.692Z,976.40
2018-12-16T11:39:14.665Z,976.43
2018-12-16T11:40:15.942Z,976.41
2018-12-16T11:41:14.555Z,976.47
2018-12-16T11:43:14.477Z,976.43
2018-12-16T11:44:14.432Z,976.42
2018-12-16T11:47:14.308Z,976.36
2018-12-16T11:48:14.260Z,976.40
2018-12-16T11:49:15.499Z,976.34
2018-12-16T11:50:14.192Z,976.32
2018-12-16T11:51:14.126Z,976.26
2018-12-16T11:54:14.005Z,976.27
2018-12-16T11:55:17.119Z,976.31
2018-12-16T11:56:14.333Z,976.28
2018-12-16T11:57:13.873Z,976.32
2018-12-16T11:58:13.833Z,976.32
2018-12-16T11:59:13.797Z,976.33
2018-12-16T12:00:13.804Z,976.30
2018-12-16T12:01:13.861Z,976.29
2018-12-16T12:02:13.962Z,976.22
2018-12-16T12:03:13.650Z,976.21
2018-12-16T12:04:14.139Z,976.24
2018-12-16T12:05:13.531Z,976.25
2018-12-16T12:06:13.493Z,976.23
2018-12-16T12:08:13.513Z,976.27
2018-12-16T12:09:13.384Z,976.25
2018-12-16T12:11:13.335Z,976.34
2018-12-16T12:12:13.231Z,976.28
2018-12-16T12:13:13.188Z,976.30
2018-12-16T12:14:13.169Z,976.33
2018-12-16T12:15:13.569Z,976.32
2018-12-16T12:16:13.168Z,976.33
2018-12-16T12:17:13.296Z,976.36
2018-12-16T12:18:12.983Z,976.30
2018-12-16T12:19:13.735Z,976.30
2018-12-16T12:20:13.116Z,976.21
2018-12-16T12:21:12.859Z,976.22
2018-12-16T12:22:12.804Z,976.23
2018-12-16T12:23:12.760Z,976.24
2018-12-16T12:24:12.761Z,976.23
2018-12-16T12:25:19.619Z,976.22
2018-12-16T12:26:12.681Z,976.22
2018-12-16T12:27:12.606Z,976.19
2018-12-16T12:28:12.566Z,976.20
2018-12-16T12:29:12.539Z,976.25
2018-12-16T12:30:13.164Z,976.25
2018-12-16T12:31:12.456Z,976.24
2018-12-16T12:32:12.380Z,976.22
2018-12-16T12:33:12.352Z,976.22
2018-12-16T12:34:12.297Z,976.18
2018-12-16T12:35:12.268Z,976.22
2018-12-16T12:36:12.209Z,976.26
2018-12-16T12:37:12.169Z,976.23
2018-12-16T12:38:12.132Z,976.27
2018-12-16T12:39:12.087Z,976.28
2018-12-16T12:40:12.044Z,976.25
2018-12-16T12:41:12.005Z,976.25
2018-12-16T12:42:11.953Z,976.28
2018-12-16T12:43:11.909Z,976.26
2018-12-16T12:44:11.868Z,976.31
2018-12-16T12:45:11.825Z,976.29
2018-12-16T12:46:11.788Z,976.31
2018-12-16T12:47:11.744Z,976.30
2018-12-16T12:48:11.703Z,976.35
2018-12-16T12:49:11.662Z,976.33
2018-12-16T13:02:41.902Z,976.46
2018-12-16T13:03:13.295Z,976.46
2018-12-16T13:04:13.246Z,976.43
2018-12-16T13:05:13.205Z,976.42
2018-12-16T13:06:13.165Z,976.44
2018-12-16T13:07:13.122Z,976.43
2018-12-16T13:08:13.084Z,976.42
2018-12-16T13:09:13.039Z,976.46
2018-12-16T13:10:12.999Z,976.46
2018-12-16T13:11:12.951Z,976.51
2018-12-16T13:12:12.915Z,976.53
2018-12-16T13:13:12.872Z,976.47
2018-12-16T13:14:12.828Z,976.46
2018-12-16T13:15:12.789Z,976.41
2018-12-16T13:16:12.740Z,976.46
2018-12-16T13:17:12.700Z,976.45
2018-12-16T13:18:12.718Z,976.52
2018-12-16T13:19:12.616Z,976.54
2018-12-16T13:20:12.579Z,976.55
2018-12-16T13:21:12.533Z,976.59
2018-12-16T13:22:12.492Z,976.64
2018-12-16T13:23:12.453Z,976.67
2018-12-16T13:24:12.405Z,976.68
2018-12-16T13:25:12.363Z,976.65
2018-12-16T13:26:12.324Z,976.68
2018-12-16T13:27:12.284Z,976.68
2018-12-16T13:28:12.235Z,976.76
2018-12-16T13:29:12.197Z,976.82
2018-12-16T13:30:12.154Z,976.81